createdAt,value
2023-03-29T00:00:38.298Z,73.6174
2023-03-29T00:02:41.472Z,75.4287
2023-03-29T00:03:43.047Z,76.9247
2023-03-29T00:04:43.004Z,77.2814
2023-03-29T00:05:43.039Z,79.1616
2023-03-29T00:06:43.049Z,80.6944
2023-03-29T00:07:44.268Z,81.8069
2023-03-29T00:08:44.394Z,81.7608
2023-03-29T00:09:45.642Z,82.6423
2023-03-29T00:10:45.732Z,83.3658
2023-03-29T00:11:46.953Z,83.1149
2023-03-29T00:12:48.283Z,83.9547
2023-03-29T00:13:49.526Z,82.4105
2023-03-29T00:14:50.929Z,79.3137
2023-03-29T00:15:52.111Z,81.2257
2023-03-29T00:16:53.690Z,80.1421
2023-03-29T00:17:55.082Z,77.4033
2023-03-29T00:18:55.172Z,78.2058
2023-03-29T00:19:56.427Z,78.1761
2023-03-29T00:20:57.813Z,77.0611
2023-03-29T00:21:59.037Z,77.7088
2023-03-29T00:22:59.476Z,78.3688
2023-03-29T00:24:00.674Z,77.6987
2023-03-29T00:25:00.714Z,76.9590
2023-03-29T00:26:02.031Z,76.5866
2023-03-29T00:27:03.565Z,76.7433
2023-03-29T00:28:04.854Z,78.0011
2023-03-29T00:29:06.219Z,79.8364
2023-03-29T00:30:07.429Z,77.0343
2023-03-29T00:31:08.898Z,78.5412
2023-03-29T00:32:10.207Z,76.0702
2023-03-29T00:33:10.357Z,75.6802
2023-03-29T00:34:11.622Z,72.7949
2023-03-29T00:35:11.631Z,70.0534
2023-03-29T00:36:12.907Z,73.0435
2023-03-29T00:37:12.974Z,74.4114
2023-03-29T00:38:14.181Z,73.7995
2023-03-29T00:39:15.492Z,73.6958
2023-03-29T00:40:16.803Z,71.9145
2023-03-29T00:41:17.186Z,74.2620
2023-03-29T00:42:18.386Z,74.5019
2023-03-29T00:43:18.479Z,74.1392
2023-03-29T00:44:19.791Z,70.7053
2023-03-29T00:45:21.228Z,70.8901
2023-03-29T00:46:22.659Z,69.2077
2023-03-29T00:47:22.957Z,70.4991
2023-03-29T00:48:24.369Z,71.7702
2023-03-29T00:49:24.369Z,71.4107
2023-03-29T00:50:25.571Z,71.4780
2023-03-29T00:51:26.956Z,72.8011
2023-03-29T00:52:28.231Z,72.9023
2023-03-29T00:53:29.679Z,73.6503
2023-03-29T00:54:30.959Z,74.2432
2023-03-29T00:55:32.392Z,72.7142
2023-03-29T00:56:32.488Z,72.5955
2023-03-29T00:57:34.012Z,70.7324
2023-03-29T00:58:35.246Z,69.9795
2023-03-29T00:59:36.724Z,69.6360
2023-03-29T01:00:38.048Z,71.3704
2023-03-29T01:01:38.179Z,71.0088
2023-03-29T01:02:38.456Z,70.0768
2023-03-29T01:03:40.163Z,67.7831
2023-03-29T01:04:41.444Z,67.8017
2023-03-29T01:05:42.750Z,68.2298
2023-03-29T01:06:43.864Z,67.3654
2023-03-29T01:07:44.524Z,68.0361
2023-03-29T01:08:45.745Z,69.4815
2023-03-29T01:09:45.852Z,68.8127
2023-03-29T01:10:47.126Z,69.0763
2023-03-29T01:11:48.483Z,69.9191
2023-03-29T01:12:49.715Z,69.7036
2023-03-29T01:13:51.205Z,70.6273
2023-03-29T01:14:52.484Z,70.7590
2023-03-29T01:15:53.932Z,70.9542
2023-03-29T01:16:55.338Z,70.0933
2023-03-29T01:17:55.683Z,72.2049
2023-03-29T01:18:55.798Z,72.1093
2023-03-29T01:29:06.493Z,69.2265
2023-03-29T01:30:07.869Z,70.3634
2023-03-29T01:31:09.164Z,71.1294
2023-03-29T01:32:09.230Z,70.4036
2023-03-29T01:33:10.549Z,68.8971
2023-03-29T01:34:11.913Z,67.7422
2023-03-29T01:35:11.990Z,68.6960
2023-03-29T01:36:13.538Z,69.7801
2023-03-29T01:37:14.756Z,71.0843
2023-03-29T01:38:16.127Z,71.1480
2023-03-29T01:39:17.396Z,72.5064
2023-03-29T01:40:18.736Z,72.0440
2023-03-29T01:41:20.038Z,69.1453
2023-03-29T01:42:21.529Z,68.7611
2023-03-29T01:43:23.553Z,69.0726
2023-03-29T01:44:23.385Z,69.7643
2023-03-29T01:45:24.715Z,69.4425
2023-03-29T01:46:24.817Z,69.2663
2023-03-29T01:47:24.892Z,68.6268
2023-03-29T01:48:26.106Z,68.3598
2023-03-29T01:49:27.413Z,68.5908
2023-03-29T01:50:28.627Z,68.0114
2023-03-29T01:51:29.950Z,70.6507
2023-03-29T01:52:31.202Z,69.7782
2023-03-29T01:53:31.245Z,69.8633
2023-03-29T01:54:32.612Z,69.7420
2023-03-29T02:04:41.706Z,71.7896
2023-03-29T02:05:41.763Z,70.6005
2023-03-29T02:06:42.986Z,69.8447
2023-03-29T02:07:44.301Z,71.4797
2023-03-29T02:08:45.526Z,72.6403
2023-03-29T02:09:45.589Z,70.1101
2023-03-29T02:10:45.714Z,70.4445
2023-03-29T02:11:47.163Z,69.8960
2023-03-29T02:12:48.534Z,73.6018
2023-03-29T02:13:48.471Z,71.0375
2023-03-29T02:14:48.550Z,69.4420
2023-03-29T02:15:50.041Z,70.4775
2023-03-29T02:16:50.082Z,73.7425
2023-03-29T02:17:51.428Z,76.4559
2023-03-29T02:18:51.702Z,74.0808
2023-03-29T02:19:53.069Z,72.1653
2023-03-29T02:20:53.159Z,72.4910
2023-03-29T02:21:53.144Z,77.0956
2023-03-29T02:22:54.438Z,77.1869
2023-03-29T02:28:59.466Z,72.7691
2023-03-29T02:29:59.500Z,74.8585
2023-03-29T02:31:01.045Z,76.3410
2023-03-29T02:32:01.704Z,74.8576
2023-03-29T02:33:01.777Z,73.7610
2023-03-29T02:34:01.870Z,73.4958
2023-03-29T02:35:01.908Z,73.8899
2023-03-29T02:36:02.023Z,72.6915
2023-03-29T02:37:02.130Z,71.9423
2023-03-29T02:38:03.530Z,74.7251
2023-03-29T02:39:03.684Z,74.4768
2023-03-29T02:40:04.986Z,69.7525
2023-03-29T02:41:06.493Z,70.6168
2023-03-29T02:42:07.785Z,70.9700
2023-03-29T02:44:09.035Z,74.1187
2023-03-29T02:45:10.376Z,75.9733
2023-03-29T02:46:10.472Z,76.8864
2023-03-29T02:47:10.558Z,75.7629
2023-03-29T02:48:10.669Z,76.5403
2023-03-29T02:49:12.038Z,76.1982
2023-03-29T02:50:13.702Z,77.0303
2023-03-29T02:51:15.916Z,74.6056
2023-03-29T02:52:15.922Z,78.5852
2023-03-29T02:53:15.955Z,76.8441
2023-03-29T02:54:17.338Z,75.6948
2023-03-29T02:55:17.423Z,71.8947
2023-03-29T02:56:18.638Z,72.9664
2023-03-29T02:57:20.221Z,76.7802
2023-03-29T02:58:20.236Z,78.5262
2023-03-29T02:59:21.580Z,78.7608
2023-03-29T03:00:21.672Z,80.1570
2023-03-29T03:01:23.092Z,76.9196
2023-03-29T03:02:23.335Z,78.5466
2023-03-29T03:03:23.954Z,78.9068
2023-03-29T03:04:24.308Z,77.4697
2023-03-29T03:05:25.614Z,76.8275
2023-03-29T03:06:25.752Z,77.1039
2023-03-29T03:07:27.024Z,79.1192
2023-03-29T03:09:29.787Z,72.6819
2023-03-29T03:11:31.124Z,75.3854
2023-03-29T03:12:31.477Z,74.2129
2023-03-29T03:13:32.753Z,72.9425
2023-03-29T03:14:33.101Z,72.6400
2023-03-29T03:15:34.401Z,73.7906
2023-03-29T03:16:34.865Z,74.3539
2023-03-29T03:17:34.856Z,75.8380
2023-03-29T03:18:36.149Z,78.6269
2023-03-29T03:19:36.286Z,78.2042
2023-03-29T03:20:37.553Z,77.5995
2023-03-29T03:21:38.538Z,78.6562
2023-03-29T03:22:39.867Z,79.7308
2023-03-29T03:23:39.981Z,77.8113
2023-03-29T03:27:42.479Z,77.0310
2023-03-29T03:28:42.539Z,77.6257
2023-03-29T03:29:43.922Z,75.7964
2023-03-29T03:30:44.086Z,74.2303
2023-03-29T03:31:44.191Z,70.2134
2023-03-29T03:32:44.304Z,68.4567
2023-03-29T03:33:45.638Z,71.0794
2023-03-29T03:34:47.182Z,71.7258
2023-03-29T03:35:48.512Z,72.0794
2023-03-29T03:36:48.633Z,71.7176
2023-03-29T03:37:49.942Z,73.8479
2023-03-29T03:38:51.442Z,75.1030
2023-03-29T03:39:52.731Z,73.9390
2023-03-29T03:41:55.400Z,71.6140
2023-03-29T03:42:55.759Z,71.3656
2023-03-29T03:43:56.277Z,73.5440
2023-03-29T03:44:56.324Z,73.4487
2023-03-29T03:45:56.586Z,72.7330
2023-03-29T03:46:57.090Z,73.8256
2023-03-29T03:47:57.200Z,72.4562
2023-03-29T03:48:57.383Z,74.7109
2023-03-29T03:49:57.417Z,75.7213
2023-03-29T03:50:57.441Z,77.2589
2023-03-29T03:51:58.788Z,75.9747
2023-03-29T03:52:58.928Z,75.7930
2023-03-29T03:54:00.250Z,74.3636
2023-03-29T03:55:01.789Z,75.0805
2023-03-29T03:56:03.148Z,76.7449
2023-03-29T03:57:04.825Z,73.9071
2023-03-29T03:58:06.109Z,73.4246
2023-03-29T03:59:06.341Z,74.2707
2023-03-29T04:00:07.692Z,76.0693
2023-03-29T04:01:07.680Z,73.6739
2023-03-29T04:02:07.824Z,72.0538
2023-03-29T04:03:08.093Z,71.4523
2023-03-29T04:04:09.167Z,72.3022
2023-03-29T04:05:09.459Z,74.1800
2023-03-29T04:06:09.495Z,75.3160
2023-03-29T04:07:10.744Z,74.0147
2023-03-29T04:08:12.158Z,71.8230
2023-03-29T04:09:13.480Z,74.1894
2023-03-29T04:10:13.640Z,74.7982
2023-03-29T04:11:14.909Z,75.2148
2023-03-29T04:12:15.031Z,76.8003
2023-03-29T04:13:16.337Z,71.7883
2023-03-29T04:14:17.840Z,69.7318
2023-03-29T04:15:17.855Z,71.1474
2023-03-29T04:16:18.067Z,71.9185
2023-03-29T04:17:18.189Z,72.9589
2023-03-29T04:18:18.770Z,70.5457
2023-03-29T04:19:20.085Z,71.5632
2023-03-29T04:20:20.389Z,71.8109
2023-03-29T04:21:21.659Z,71.5349
2023-03-29T04:22:21.915Z,71.6796
2023-03-29T04:34:35.111Z,69.2099
2023-03-29T04:35:35.523Z,68.3889
2023-03-29T04:36:36.744Z,69.2999
2023-03-29T04:37:38.372Z,69.8551
2023-03-29T04:38:38.367Z,71.5335
2023-03-29T04:39:38.593Z,71.4530
2023-03-29T04:40:38.681Z,69.6428
2023-03-29T04:41:40.040Z,70.8009
2023-03-29T04:42:40.082Z,70.2703
2023-03-29T04:43:41.452Z,69.3278
2023-03-29T04:44:42.981Z,68.7586
2023-03-29T04:45:43.017Z,69.2009
2023-03-29T04:46:43.247Z,67.1970
2023-03-29T04:47:43.281Z,68.4859
2023-03-29T04:48:43.308Z,69.6371
2023-03-29T04:49:43.433Z,71.6059
2023-03-29T04:50:44.674Z,70.3358
2023-03-29T04:51:44.998Z,68.5100
2023-03-29T04:52:46.546Z,64.2909
2023-03-29T04:53:46.669Z,64.2981
2023-03-29T04:54:47.978Z,63.8209
2023-03-29T04:55:48.089Z,61.6536
2023-03-29T04:56:49.431Z,59.9497
2023-03-29T04:57:49.512Z,59.6435
2023-03-29T04:58:50.772Z,60.5063
2023-03-29T04:59:52.113Z,60.3833
2023-03-29T05:00:52.280Z,59.4335
2023-03-29T05:01:52.348Z,60.5182
2023-03-29T05:02:52.650Z,61.4479
2023-03-29T05:03:52.761Z,62.1635
2023-03-29T05:04:53.157Z,60.8550
2023-03-29T05:05:53.240Z,60.9642
2023-03-29T05:06:53.422Z,61.7324
2023-03-29T05:07:54.833Z,62.0677
2023-03-29T05:08:55.226Z,62.5450
2023-03-29T05:09:55.460Z,63.2312
2023-03-29T05:10:55.773Z,61.5617
2023-03-29T05:11:55.983Z,60.5879
2023-03-29T05:12:56.097Z,60.7682
2023-03-29T05:13:56.218Z,60.8415
2023-03-29T05:14:56.463Z,60.8278
2023-03-29T05:15:57.360Z,61.8947
2023-03-29T05:16:57.594Z,63.6637
2023-03-29T05:17:58.186Z,62.9790
2023-03-29T05:18:58.585Z,60.6789
2023-03-29T05:19:59.171Z,60.7013
2023-03-29T05:20:59.878Z,62.0566
2023-03-29T05:22:00.594Z,61.6207
2023-03-29T05:23:00.642Z,61.1346
2023-03-29T05:24:01.941Z,62.7272
2023-03-29T05:25:02.110Z,62.8416
2023-03-29T05:26:03.451Z,63.2311
2023-03-29T05:27:03.610Z,63.8997
2023-03-29T05:28:03.679Z,63.7217
2023-03-29T05:29:03.640Z,64.2359
2023-03-29T05:30:03.777Z,62.5487
2023-03-29T05:31:04.273Z,63.3866
2023-03-29T05:32:04.853Z,63.0182
2023-03-29T05:33:04.885Z,62.9212
2023-03-29T05:34:06.363Z,63.5718
2023-03-29T05:35:06.472Z,61.4827
2023-03-29T05:36:06.823Z,60.9278
2023-03-29T05:37:07.086Z,61.6073
2023-03-29T05:38:07.248Z,66.1722
2023-03-29T05:39:07.323Z,65.9242
2023-03-29T05:40:08.127Z,66.2168
2023-03-29T05:41:09.284Z,62.5172
2023-03-29T05:42:09.579Z,62.2568
2023-03-29T05:43:09.458Z,62.3740
2023-03-29T05:44:09.624Z,63.2258
2023-03-29T05:46:10.862Z,62.0353
2023-03-29T05:47:11.214Z,63.9962
2023-03-29T05:48:11.290Z,64.0344
2023-03-29T05:49:11.546Z,62.7281
2023-03-29T05:50:11.678Z,63.5621
2023-03-29T05:51:12.552Z,62.8297
2023-03-29T05:52:12.717Z,62.6037
2023-03-29T05:53:12.874Z,62.1528
2023-03-29T05:54:14.248Z,63.7329
2023-03-29T05:55:14.381Z,64.4327
2023-03-29T05:56:14.494Z,64.8255
2023-03-29T05:57:14.706Z,64.9477
2023-03-29T05:58:14.870Z,64.4935
2023-03-29T05:59:15.033Z,66.1169
2023-03-29T06:00:15.058Z,64.8465
2023-03-29T06:01:15.810Z,65.5695
2023-03-29T06:02:15.952Z,65.2725
2023-03-29T06:03:22.553Z,64.9270
2023-03-29T06:04:23.155Z,66.4905
2023-03-29T06:05:23.331Z,66.0006
2023-03-29T06:06:24.783Z,65.3855
2023-03-29T06:07:24.939Z,66.1832
2023-03-29T06:08:25.071Z,67.2712
2023-03-29T06:09:25.355Z,66.0515
2023-03-29T06:16:29.731Z,64.1293
2023-03-29T06:17:30.226Z,64.8501
2023-03-29T06:18:30.814Z,66.1256
2023-03-29T06:19:30.843Z,64.2237
2023-03-29T06:20:30.931Z,63.6441
2023-03-29T06:21:31.127Z,61.3655
2023-03-29T06:22:32.498Z,62.0625
2023-03-29T06:23:32.572Z,61.7141
2023-03-29T06:24:33.023Z,61.2415
2023-03-29T06:25:34.114Z,62.2615
2023-03-29T06:26:34.399Z,62.9524
2023-03-29T06:27:34.497Z,63.6593
2023-03-29T06:28:34.540Z,61.1537
2023-03-29T06:29:34.786Z,63.0567
2023-03-29T06:30:35.747Z,63.1431
2023-03-29T06:31:36.531Z,63.9736
2023-03-29T06:32:36.874Z,62.3356
2023-03-29T06:33:37.047Z,65.0463
2023-03-29T06:34:38.576Z,64.3049
2023-03-29T06:35:37.599Z,61.5112
2023-03-29T06:36:37.692Z,63.1376
2023-03-29T06:37:37.910Z,62.1071
2023-03-29T06:38:37.927Z,61.4725
2023-03-29T06:39:38.173Z,61.3888
2023-03-29T06:40:38.203Z,62.6565
2023-03-29T06:41:38.231Z,62.4290
2023-03-29T06:42:38.379Z,61.4989
2023-03-29T06:43:38.393Z,62.0692
2023-03-29T06:44:38.414Z,61.3948
2023-03-29T06:45:38.668Z,61.1002
2023-03-29T06:46:39.019Z,59.2788
2023-03-29T06:47:39.086Z,60.2567
2023-03-29T06:48:39.362Z,60.5712
2023-03-29T06:49:39.387Z,60.9214
2023-03-29T06:50:39.493Z,60.0329
2023-03-29T06:51:39.532Z,60.1966
2023-03-29T06:52:39.731Z,59.7256
2023-03-29T06:53:41.104Z,60.9363
2023-03-29T06:54:41.260Z,62.7205
2023-03-29T06:55:41.661Z,60.9349
2023-03-29T06:56:43.121Z,61.0029
2023-03-29T06:57:43.635Z,61.7250
2023-03-29T06:58:43.681Z,61.4534
2023-03-29T06:59:43.955Z,59.2379
2023-03-29T07:00:44.403Z,59.4836
2023-03-29T07:01:44.854Z,58.9238
2023-03-29T07:02:44.906Z,59.7642
2023-03-29T07:03:46.732Z,61.1428
2023-03-29T07:04:47.149Z,59.9253
2023-03-29T07:05:47.428Z,59.6066
2023-03-29T07:06:47.476Z,59.2682
2023-03-29T07:07:47.764Z,60.5982
2023-03-29T07:08:47.956Z,61.5151
2023-03-29T07:09:48.006Z,61.5096
2023-03-29T07:10:48.121Z,64.9738
2023-03-29T07:11:48.332Z,66.9878
2023-03-29T07:12:48.516Z,68.7677
2023-03-29T07:13:49.043Z,67.9271
2023-03-29T07:14:49.124Z,67.4435
2023-03-29T07:15:49.242Z,70.8804
2023-03-29T07:16:49.326Z,68.5347
2023-03-29T07:17:49.548Z,69.2957
2023-03-29T07:18:49.565Z,70.0615
2023-03-29T07:19:49.636Z,70.6588
2023-03-29T07:20:49.815Z,70.7803
2023-03-29T07:21:49.852Z,70.1815
2023-03-29T07:22:49.862Z,71.0903
2023-03-29T07:23:50.079Z,70.8164
2023-03-29T07:24:50.085Z,70.4487
2023-03-29T07:25:50.114Z,69.0548
2023-03-29T07:27:03.261Z,70.6968
2023-03-29T07:27:50.684Z,70.9071
2023-03-29T07:28:50.730Z,69.3025
2023-03-29T07:29:50.877Z,69.5479
2023-03-29T07:30:51.569Z,69.5546
2023-03-29T07:31:51.778Z,69.6720
2023-03-29T07:32:52.234Z,69.7247
2023-03-29T07:33:53.332Z,68.5942
2023-03-29T07:34:53.446Z,70.9429
2023-03-29T07:35:53.518Z,70.3129
2023-03-29T07:36:53.781Z,71.1708
2023-03-29T07:37:53.781Z,70.1358
2023-03-29T07:38:56.301Z,71.3632
2023-03-29T07:39:55.289Z,70.5683
2023-03-29T07:40:55.504Z,71.1314
2023-03-29T07:41:55.532Z,71.7359
2023-03-29T07:42:55.561Z,70.2248
2023-03-29T07:43:55.718Z,67.0784
2023-03-29T07:44:55.734Z,67.0854
2023-03-29T07:45:55.989Z,69.8884
2023-03-29T07:46:56.170Z,68.8950
2023-03-29T07:47:56.478Z,69.2816
2023-03-29T07:48:56.658Z,68.9774
2023-03-29T07:49:57.000Z,64.6647
2023-03-29T07:50:57.082Z,66.9437
2023-03-29T07:51:57.848Z,70.5586
2023-03-29T07:52:58.126Z,68.5457
2023-03-29T07:53:58.255Z,67.3624
2023-03-29T07:54:58.495Z,68.6926
2023-03-29T07:55:58.590Z,66.2208
2023-03-29T07:56:58.826Z,66.1140
2023-03-29T07:57:59.167Z,64.4008
2023-03-29T07:58:59.321Z,65.1791
2023-03-29T07:59:59.548Z,64.2810
2023-03-29T08:00:59.772Z,62.8997
2023-03-29T08:02:00.918Z,62.1488
2023-03-29T08:03:01.040Z,65.2966
2023-03-29T08:04:01.414Z,64.8864
2023-03-29T08:05:01.983Z,64.0322
2023-03-29T08:06:02.585Z,65.4507
2023-03-29T08:07:02.730Z,65.7339
2023-03-29T08:08:02.830Z,66.2892
2023-03-29T08:09:03.122Z,66.3399
2023-03-29T08:10:03.314Z,63.2086
2023-03-29T08:11:03.687Z,65.4975
2023-03-29T08:12:04.020Z,64.8647
2023-03-29T08:13:04.089Z,63.6526
2023-03-29T08:14:04.248Z,65.3737
2023-03-29T08:15:04.432Z,65.8373
2023-03-29T08:16:04.842Z,67.0289
2023-03-29T08:17:05.130Z,66.6308
2023-03-29T08:18:05.904Z,66.5009
2023-03-29T08:19:06.711Z,67.5240
2023-03-29T08:20:07.307Z,67.3737
2023-03-29T08:21:07.901Z,66.1859
2023-03-29T08:22:07.924Z,66.9396
2023-03-29T08:23:08.234Z,66.9323
2023-03-29T08:24:08.507Z,68.5666
2023-03-29T08:25:09.779Z,67.8462
2023-03-29T08:26:09.924Z,67.1458
2023-03-29T08:27:10.251Z,69.5120
2023-03-29T08:28:10.387Z,68.9728
2023-03-29T08:29:10.485Z,67.8525
2023-03-29T08:30:10.742Z,67.4313
2023-03-29T08:31:11.417Z,67.7306
2023-03-29T08:32:11.654Z,66.5659
2023-03-29T08:33:12.058Z,65.4545
2023-03-29T08:34:12.501Z,63.8573
2023-03-29T08:35:12.715Z,67.3345
2023-03-29T08:36:13.044Z,64.5296
2023-03-29T08:37:13.140Z,63.9371
2023-03-29T08:38:13.333Z,65.1571
2023-03-29T08:39:13.646Z,64.8739
2023-03-29T08:40:13.712Z,63.9923
2023-03-29T08:41:14.553Z,63.3316
2023-03-29T08:42:14.585Z,63.5413
2023-03-29T08:43:14.662Z,64.0079
2023-03-29T08:44:14.938Z,63.5475
2023-03-29T08:45:15.006Z,62.7450
2023-03-29T08:46:15.317Z,62.2101
2023-03-29T08:47:16.202Z,60.3638
2023-03-29T08:48:16.663Z,62.1000
2023-03-29T08:49:16.830Z,62.0731
2023-03-29T08:50:16.952Z,63.7803
2023-03-29T08:51:18.016Z,59.8607
2023-03-29T08:52:18.174Z,63.8041
2023-03-29T08:53:19.409Z,63.1250
2023-03-29T08:54:19.569Z,62.0851
2023-03-29T08:55:19.904Z,60.1555
2023-03-29T08:56:20.051Z,59.9686
2023-03-29T08:57:20.710Z,61.6003
2023-03-29T08:58:20.860Z,59.7844
2023-03-29T08:59:21.318Z,61.2919
2023-03-29T09:00:21.406Z,62.1070
2023-03-29T09:01:21.521Z,60.4740
2023-03-29T09:02:21.979Z,59.4453
2023-03-29T09:03:22.492Z,59.9120
2023-03-29T09:04:22.781Z,59.6640
2023-03-29T09:05:22.947Z,57.7639
2023-03-29T09:06:23.212Z,58.6730
2023-03-29T09:07:26.463Z,57.9034
2023-03-29T09:08:24.041Z,59.3220
2023-03-29T09:09:25.004Z,58.9010
2023-03-29T09:10:25.210Z,57.2900
2023-03-29T09:11:25.512Z,59.0357
2023-03-29T09:12:25.612Z,58.5823
2023-03-29T09:13:25.935Z,58.2982
2023-03-29T09:14:26.091Z,59.6995
2023-03-29T09:15:26.395Z,60.0383
2023-03-29T09:16:26.486Z,59.9734
2023-03-29T09:17:27.128Z,59.7897
2023-03-29T09:18:27.464Z,60.9077
2023-03-29T09:19:27.659Z,59.8033
2023-03-29T09:20:28.010Z,60.7105
2023-03-29T09:21:28.217Z,60.9902
2023-03-29T09:22:28.297Z,62.2537
2023-03-29T09:23:28.542Z,59.6589
2023-03-29T09:24:28.881Z,60.9074
2023-03-29T09:25:29.094Z,59.2416
2023-03-29T09:26:29.490Z,63.1839
2023-03-29T09:27:29.750Z,60.7118
2023-03-29T09:28:29.907Z,61.8001
2023-03-29T09:29:31.238Z,60.8135
2023-03-29T09:30:31.372Z,61.3862
2023-03-29T09:31:31.817Z,60.6018
2023-03-29T09:32:31.961Z,60.5649
2023-03-29T09:33:32.216Z,60.6164
2023-03-29T09:34:32.324Z,60.9045
2023-03-29T09:35:32.463Z,62.5247
2023-03-29T09:36:32.758Z,61.8207
2023-03-29T09:37:32.869Z,62.1165
2023-03-29T09:38:33.221Z,62.0408
2023-03-29T09:39:33.237Z,61.2022
2023-03-29T09:40:33.359Z,64.3202
2023-03-29T09:41:33.603Z,64.1232
2023-03-29T09:42:33.717Z,61.6120
2023-03-29T09:43:33.768Z,63.3237
2023-03-29T09:44:33.976Z,60.4170
2023-03-29T09:45:34.121Z,63.0124
2023-03-29T09:46:34.520Z,62.7916
2023-03-29T09:47:34.658Z,63.8512
2023-03-29T09:48:35.251Z,61.9225
2023-03-29T09:49:35.356Z,60.8766
2023-03-29T09:50:35.918Z,60.3097
2023-03-29T09:51:36.007Z,60.6424
2023-03-29T09:52:36.315Z,60.3695
2023-03-29T09:53:36.485Z,60.2623
2023-03-29T09:54:36.809Z,60.1305
2023-03-29T09:55:37.073Z,60.0959
2023-03-29T09:56:37.338Z,59.7804
2023-03-29T09:57:37.525Z,59.7419
2023-03-29T09:58:37.894Z,61.3562
2023-03-29T09:59:38.017Z,61.7005
2023-03-29T10:00:38.141Z,61.3579
2023-03-29T10:01:38.794Z,60.4336
2023-03-29T10:02:39.302Z,59.1860
2023-03-29T10:03:39.529Z,59.5533
2023-03-29T10:04:39.994Z,60.2145
2023-03-29T10:05:40.122Z,60.8930
2023-03-29T10:06:40.214Z,59.9354
2023-03-29T10:07:40.434Z,60.2206
2023-03-29T10:08:41.838Z,59.2616
2023-03-29T10:09:42.152Z,58.2588
2023-03-29T10:10:42.567Z,58.6262
2023-03-29T10:11:42.893Z,59.0582
2023-03-29T10:12:43.265Z,57.8590
2023-03-29T10:13:43.366Z,58.5193
2023-03-29T10:14:43.532Z,56.3337
2023-03-29T10:15:44.550Z,58.3732
2023-03-29T10:16:44.775Z,56.7371
2023-03-29T10:17:45.143Z,57.3001
2023-03-29T10:18:45.370Z,59.8837
2023-03-29T10:19:45.650Z,57.1791
2023-03-29T10:20:45.854Z,57.4905
2023-03-29T10:21:46.156Z,56.6444
2023-03-29T10:22:46.300Z,59.3231
2023-03-29T10:23:46.763Z,55.5349
2023-03-29T10:24:46.862Z,57.8759
2023-03-29T10:25:47.135Z,59.0695
2023-03-29T10:26:47.320Z,58.7921
2023-03-29T10:27:47.827Z,59.2854
2023-03-29T10:28:48.049Z,57.9050
2023-03-29T10:29:48.413Z,56.4028
2023-03-29T10:30:48.690Z,56.1716
2023-03-29T10:31:49.257Z,56.0983
2023-03-29T10:32:49.804Z,53.5085
2023-03-29T10:33:50.038Z,56.1450
2023-03-29T10:34:50.515Z,54.2668
2023-03-29T10:35:50.738Z,54.8142
2023-03-29T10:36:51.103Z,56.2656
2023-03-29T10:37:51.581Z,55.1801
2023-03-29T10:38:52.004Z,54.4128
2023-03-29T10:39:52.292Z,50.6371
2023-03-29T10:40:52.723Z,53.0265
2023-03-29T10:41:53.114Z,54.5374
2023-03-29T10:42:53.226Z,52.5031
2023-03-29T10:43:54.376Z,51.2055
2023-03-29T10:44:54.835Z,51.7738
2023-03-29T10:45:55.522Z,51.7063
2023-03-29T10:46:56.782Z,53.8727
2023-03-29T10:47:57.117Z,54.2905
2023-03-29T10:48:57.520Z,53.3850
2023-03-29T10:49:58.652Z,55.0596
2023-03-29T10:50:59.032Z,51.7973
2023-03-29T10:51:59.219Z,49.6680
2023-03-29T10:52:59.806Z,51.5802
2023-03-29T10:54:00.048Z,50.1801
2023-03-29T10:55:00.563Z,51.7498
2023-03-29T10:56:00.757Z,56.9632
2023-03-29T10:57:01.139Z,55.1554
2023-03-29T10:58:01.588Z,55.2603
2023-03-29T10:59:01.811Z,57.2674
2023-03-29T11:00:02.265Z,57.7670
2023-03-29T11:01:02.778Z,59.0346
2023-03-29T11:02:03.539Z,59.0507
2023-03-29T11:03:04.236Z,62.0149
2023-03-29T11:04:05.488Z,61.8806
2023-03-29T11:05:06.067Z,62.5686
2023-03-29T11:06:06.441Z,59.4059
2023-03-29T11:07:06.858Z,60.7918
2023-03-29T11:08:07.086Z,59.1740
2023-03-29T11:09:07.440Z,57.6125
2023-03-29T11:10:07.870Z,57.8510
2023-03-29T11:11:08.348Z,56.3850
2023-03-29T11:12:15.583Z,56.9091
2023-03-29T11:13:09.668Z,55.7896
2023-03-29T11:14:10.476Z,53.0065
2023-03-29T11:15:10.662Z,52.3517
2023-03-29T11:16:11.089Z,52.3603
2023-03-29T11:17:11.330Z,53.6243
2023-03-29T11:18:11.722Z,52.2251
2023-03-29T11:19:12.106Z,53.1468
2023-03-29T11:20:12.530Z,51.4193
2023-03-29T11:21:12.928Z,52.6963
2023-03-29T11:22:13.101Z,51.1549
2023-03-29T11:23:13.506Z,50.2963
2023-03-29T11:24:13.708Z,53.0534
2023-03-29T11:25:14.124Z,51.5391
2023-03-29T11:26:14.490Z,51.9821
2023-03-29T11:27:14.704Z,51.5162
2023-03-29T11:28:15.133Z,49.6456
2023-03-29T11:29:15.289Z,47.3120
2023-03-29T11:30:15.950Z,48.9883
2023-03-29T11:31:16.793Z,51.1726
2023-03-29T11:32:17.112Z,46.4760
2023-03-29T11:33:18.039Z,45.9922
2023-03-29T11:34:18.301Z,46.9256
2023-03-29T11:35:18.678Z,46.2627
2023-03-29T11:36:19.200Z,45.9531
2023-03-29T11:37:19.416Z,43.9855
2023-03-29T11:38:19.940Z,44.7523
2023-03-29T11:39:20.404Z,46.0923
2023-03-29T11:40:20.691Z,45.6863
2023-03-29T11:41:21.109Z,45.1872
2023-03-29T11:42:21.317Z,45.6413
2023-03-29T11:43:21.629Z,44.7797
2023-03-29T11:44:22.008Z,43.7015
2023-03-29T11:45:22.255Z,43.6703
2023-03-29T11:46:22.847Z,45.7160
2023-03-29T11:47:23.511Z,46.5959
2023-03-29T11:48:24.112Z,48.9944
2023-03-29T11:49:24.546Z,48.3076
2023-03-29T11:50:25.975Z,48.2118
2023-03-29T11:51:26.154Z,47.2803
2023-03-29T11:52:26.509Z,48.4295
2023-03-29T11:53:26.769Z,48.4223
2023-03-29T11:54:27.164Z,49.2509
2023-03-29T11:55:27.979Z,47.9517
2023-03-29T11:56:28.253Z,49.3581
2023-03-29T11:57:28.809Z,50.0883
2023-03-29T11:58:29.373Z,48.3733
2023-03-29T11:59:29.667Z,50.5623
2023-03-29T12:00:30.039Z,50.9172
2023-03-29T12:01:30.484Z,50.0698
2023-03-29T12:02:31.249Z,52.1773
2023-03-29T12:03:31.911Z,51.0361
2023-03-29T12:04:33.120Z,52.1365
2023-03-29T12:05:33.531Z,52.3354
2023-03-29T12:06:33.786Z,51.3994
2023-03-29T12:07:34.205Z,50.1193
2023-03-29T12:08:34.539Z,49.9112
2023-03-29T12:09:34.731Z,51.3714
2023-03-29T12:10:35.177Z,51.8656
2023-03-29T12:11:35.352Z,53.8704
2023-03-29T12:12:36.280Z,52.8287
2023-03-29T12:13:36.669Z,53.7497
2023-03-29T12:14:37.348Z,53.0463
2023-03-29T12:15:37.791Z,52.1206
2023-03-29T12:16:38.104Z,54.0245
2023-03-29T12:17:38.739Z,53.9539
2023-03-29T12:18:39.691Z,56.0029
2023-03-29T12:19:42.658Z,53.4255
2023-03-29T12:20:41.183Z,53.3889
2023-03-29T12:21:42.065Z,54.1773
2023-03-29T12:22:42.531Z,52.0817
2023-03-29T12:23:42.711Z,54.1103
2023-03-29T12:24:43.064Z,54.8533
2023-03-29T12:25:43.669Z,55.5808
2023-03-29T12:26:43.927Z,58.3850
2023-03-29T12:27:44.286Z,57.1042
2023-03-29T12:28:44.651Z,56.6246
2023-03-29T12:29:44.954Z,56.2683
2023-03-29T12:30:45.358Z,55.5678
2023-03-29T12:31:45.868Z,57.1759
2023-03-29T12:32:46.473Z,57.5233
2023-03-29T12:33:46.883Z,53.7381
2023-03-29T12:34:47.226Z,54.7722
2023-03-29T12:35:47.535Z,52.6615
2023-03-29T12:36:47.902Z,53.3516
2023-03-29T12:37:48.140Z,54.2631
2023-03-29T12:38:48.486Z,52.0085
2023-03-29T12:39:48.898Z,55.5317
2023-03-29T12:40:49.260Z,54.2899
2023-03-29T12:41:49.584Z,52.8094
2023-03-29T12:42:49.858Z,50.4122
2023-03-29T12:43:50.317Z,54.2438
2023-03-29T12:44:50.866Z,53.4196
2023-03-29T12:45:51.187Z,53.1670
2023-03-29T12:46:52.293Z,53.9310
2023-03-29T12:47:52.763Z,53.8555
2023-03-29T12:48:53.207Z,49.7535
2023-03-29T12:49:53.825Z,47.0304
2023-03-29T12:50:54.051Z,43.3831
2023-03-29T12:51:54.454Z,48.3304
2023-03-29T12:52:54.923Z,47.3160
2023-03-29T12:53:55.115Z,45.4493
2023-03-29T12:54:55.465Z,46.5447
2023-03-29T12:55:55.921Z,47.8258
2023-03-29T12:56:56.685Z,49.2431
2023-03-29T12:57:57.024Z,48.2660
2023-03-29T12:58:57.241Z,51.3695
2023-03-29T12:59:57.662Z,53.1950
2023-03-29T13:00:58.210Z,53.2062
2023-03-29T13:01:58.917Z,52.3802